sensor_id;sensor_type;location;lat;lon;timestamp;P1;durP1;ratioP1;P2;durP2;ratioP2
9467;SDS011;4772;52.382;9.752;2023-07-24T00:00:20;1.80;;;1.70;;
9467;SDS011;4772;52.382;9.752;2023-07-24T00:02:46;2.00;;;1.90;;
9467;SDS011;4772;52.382;9.752;2023-07-24T00:05:12;1.73;;;1.60;;
9467;SDS011;4772;52.382;9.752;2023-07-24T00:07:38;1.90;;;1.80;;
9467;SDS011;4772;52.382;9.752;2023-07-24T00:10:04;2.40;;;2.20;;
9467;SDS011;4772;52.382;9.752;2023-07-24T00:12:30;2.23;;;2.03;;
9467;SDS011;4772;52.382;9.752;2023-07-24T00:14:56;1.87;;;1.77;;
9467;SDS011;4772;52.382;9.752;2023-07-24T00:17:22;2.00;;;1.80;;
9467;SDS011;4772;52.382;9.752;2023-07-24T00:19:48;3.03;;;2.10;;
9467;SDS011;4772;52.382;9.752;2023-07-24T00:22:14;2.00;;;1.90;;
9467;SDS011;4772;52.382;9.752;2023-07-24T00:24:40;2.20;;;2.00;;
9467;SDS011;4772;52.382;9.752;2023-07-24T00:27:06;2.33;;;2.13;;
9467;SDS011;4772;52.382;9.752;2023-07-24T00:29:32;2.30;;;2.10;;
9467;SDS011;4772;52.382;9.752;2023-07-24T00:31:58;4.40;;;2.07;;
9467;SDS011;4772;52.382;9.752;2023-07-24T00:34:24;2.37;;;2.17;;
9467;SDS011;4772;52.382;9.752;2023-07-24T00:36:50;2.50;;;2.30;;
9467;SDS011;4772;52.382;9.752;2023-07-24T00:39:16;2.33;;;2.13;;
9467;SDS011;4772;52.382;9.752;2023-07-24T00:41:42;2.27;;;2.13;;
9467;SDS011;4772;52.382;9.752;2023-07-24T00:44:09;2.40;;;2.20;;
9467;SDS011;4772;52.382;9.752;2023-07-24T00:46:35;2.60;;;2.40;;
9467;SDS011;4772;52.382;9.752;2023-07-24T00:49:02;2.23;;;2.13;;
9467;SDS011;4772;52.382;9.752;2023-07-24T00:51:29;3.23;;;2.30;;
9467;SDS011;4772;52.382;9.752;2023-07-24T00:53:56;3.20;;;2.20;;
9467;SDS011;4772;52.382;9.752;2023-07-24T00:56:22;2.50;;;2.30;;
9467;SDS011;4772;52.382;9.752;2023-07-24T00:58:48;2.60;;;2.40;;
9467;SDS011;4772;52.382;9.752;2023-07-24T01:01:16;2.53;;;2.33;;
9467;SDS011;4772;52.382;9.752;2023-07-24T01:03:43;3.87;;;2.70;;
9467;SDS011;4772;52.382;9.752;2023-07-24T01:06:09;2.90;;;2.60;;
9467;SDS011;4772;52.382;9.752;2023-07-24T01:08:35;3.40;;;3.10;;
9467;SDS011;4772;52.382;9.752;2023-07-24T01:11:21;2.70;;;2.50;;
9467;SDS011;4772;52.382;9.752;2023-07-24T01:14:02;3.20;;;2.97;;
9467;SDS011;4772;52.382;9.752;2023-07-24T01:16:33;3.17;;;2.93;;
9467;SDS011;4772;52.382;9.752;2023-07-24T01:19:00;3.33;;;3.03;;
9467;SDS011;4772;52.382;9.752;2023-07-24T01:21:29;3.70;;;3.20;;
9467;SDS011;4772;52.382;9.752;2023-07-24T01:24:43;3.00;;;2.80;;
9467;SDS011;4772;52.382;9.752;2023-07-24T01:26:45;3.63;;;3.33;;
9467;SDS011;4772;52.382;9.752;2023-07-24T01:29:11;4.00;;;3.67;;
9467;SDS011;4772;52.382;9.752;2023-07-24T01:31:37;3.80;;;3.43;;
9467;SDS011;4772;52.382;9.752;2023-07-24T01:34:03;3.60;;;3.30;;
9467;SDS011;4772;52.382;9.752;2023-07-24T01:36:29;3.77;;;3.47;;
9467;SDS011;4772;52.382;9.752;2023-07-24T01:38:55;4.20;;;3.90;;
9467;SDS011;4772;52.382;9.752;2023-07-24T01:41:21;4.40;;;3.70;;
9467;SDS011;4772;52.382;9.752;2023-07-24T01:43:47;4.20;;;3.90;;
9467;SDS011;4772;52.382;9.752;2023-07-24T01:46:13;4.13;;;3.83;;
9467;SDS011;4772;52.382;9.752;2023-07-24T01:48:39;4.00;;;3.70;;
9467;SDS011;4772;52.382;9.752;2023-07-24T01:51:05;5.53;;;3.73;;
9467;SDS011;4772;52.382;9.752;2023-07-24T01:53:31;4.77;;;3.97;;
9467;SDS011;4772;52.382;9.752;2023-07-24T01:55:58;4.10;;;3.77;;
9467;SDS011;4772;52.382;9.752;2023-07-24T01:58:24;4.47;;;4.17;;
9467;SDS011;4772;52.382;9.752;2023-07-24T02:00:50;5.93;;;4.43;;
9467;SDS011;4772;52.382;9.752;2023-07-24T02:03:15;4.23;;;3.83;;
9467;SDS011;4772;52.382;9.752;2023-07-24T02:05:48;4.57;;;4.10;;
9467;SDS011;4772;52.382;9.752;2023-07-24T02:08:15;5.47;;;4.53;;
9467;SDS011;4772;52.382;9.752;2023-07-24T02:10:41;5.03;;;4.47;;
9467;SDS011;4772;52.382;9.752;2023-07-24T02:13:07;4.73;;;4.30;;
9467;SDS011;4772;52.382;9.752;2023-07-24T02:15:34;4.90;;;4.50;;
9467;SDS011;4772;52.382;9.752;2023-07-24T02:18:00;5.33;;;4.63;;
9467;SDS011;4772;52.382;9.752;2023-07-24T02:20:26;4.70;;;4.30;;
9467;SDS011;4772;52.382;9.752;2023-07-24T02:22:52;4.83;;;4.43;;
9467;SDS011;4772;52.382;9.752;2023-07-24T02:25:18;4.83;;;4.43;;
9467;SDS011;4772;52.382;9.752;2023-07-24T02:27:44;5.87;;;4.13;;
9467;SDS011;4772;52.382;9.752;2023-07-24T02:30:10;4.53;;;4.23;;
9467;SDS011;4772;52.382;9.752;2023-07-24T02:32:36;4.50;;;4.10;;
9467;SDS011;4772;52.382;9.752;2023-07-24T02:35:02;5.27;;;4.40;;
9467;SDS011;4772;52.382;9.752;2023-07-24T02:37:28;5.43;;;4.93;;
9467;SDS011;4772;52.382;9.752;2023-07-24T02:39:54;5.87;;;4.90;;
9467;SDS011;4772;52.382;9.752;2023-07-24T02:42:20;5.00;;;4.60;;
9467;SDS011;4772;52.382;9.752;2023-07-24T02:44:46;4.67;;;4.30;;
9467;SDS011;4772;52.382;9.752;2023-07-24T02:47:12;4.53;;;4.13;;
9467;SDS011;4772;52.382;9.752;2023-07-24T02:49:38;4.57;;;4.27;;
9467;SDS011;4772;52.382;9.752;2023-07-24T02:52:04;5.10;;;4.60;;
9467;SDS011;4772;52.382;9.752;2023-07-24T02:54:30;4.40;;;4.10;;
9467;SDS011;4772;52.382;9.752;2023-07-24T02:56:56;5.83;;;4.13;;
9467;SDS011;4772;52.382;9.752;2023-07-24T02:59:23;4.93;;;4.27;;
9467;SDS011;4772;52.382;9.752;2023-07-24T03:01:49;4.70;;;4.30;;
9467;SDS011;4772;52.382;9.752;2023-07-24T03:04:15;4.67;;;4.37;;
9467;SDS011;4772;52.382;9.752;2023-07-24T03:06:41;4.43;;;4.13;;
9467;SDS011;4772;52.382;9.752;2023-07-24T03:09:07;4.70;;;4.37;;
9467;SDS011;4772;52.382;9.752;2023-07-24T03:11:33;4.40;;;4.00;;
9467;SDS011;4772;52.382;9.752;2023-07-24T03:13:59;4.67;;;4.27;;
9467;SDS011;4772;52.382;9.752;2023-07-24T03:16:25;4.33;;;4.03;;
9467;SDS011;4772;52.382;9.752;2023-07-24T03:18:50;4.23;;;3.93;;
9467;SDS011;4772;52.382;9.752;2023-07-24T03:21:16;4.37;;;3.97;;
9467;SDS011;4772;52.382;9.752;2023-07-24T03:23:42;4.27;;;3.97;;
9467;SDS011;4772;52.382;9.752;2023-07-24T03:26:08;4.00;;;3.70;;
9467;SDS011;4772;52.382;9.752;2023-07-24T03:28:34;3.90;;;3.60;;
9467;SDS011;4772;52.382;9.752;2023-07-24T03:31:00;3.87;;;3.57;;
9467;SDS011;4772;52.382;9.752;2023-07-24T03:33:26;3.27;;;2.97;;
9467;SDS011;4772;52.382;9.752;2023-07-24T03:35:53;3.10;;;2.80;;
9467;SDS011;4772;52.382;9.752;2023-07-24T03:38:19;3.37;;;3.10;;
9467;SDS011;4772;52.382;9.752;2023-07-24T03:40:45;3.10;;;2.90;;
9467;SDS011;4772;52.382;9.752;2023-07-24T03:43:12;6.13;;;2.50;;
9467;SDS011;4772;52.382;9.752;2023-07-24T03:45:38;2.60;;;2.40;;
9467;SDS011;4772;52.382;9.752;2023-07-24T03:48:04;2.90;;;2.60;;
9467;SDS011;4772;52.382;9.752;2023-07-24T03:50:30;2.77;;;2.30;;
9467;SDS011;4772;52.382;9.752;2023-07-24T03:52:56;6.93;;;3.23;;
9467;SDS011;4772;52.382;9.752;2023-07-24T03:55:22;2.40;;;2.20;;
9467;SDS011;4772;52.382;9.752;2023-07-24T03:57:48;3.40;;;2.63;;
9467;SDS011;4772;52.382;9.752;2023-07-24T04:00:14;3.60;;;2.50;;
9467;SDS011;4772;52.382;9.752;2023-07-24T04:02:40;3.10;;;2.80;;
9467;SDS011;4772;52.382;9.752;2023-07-24T04:05:06;3.40;;;2.50;;
9467;SDS011;4772;52.382;9.752;2023-07-24T04:07:32;3.33;;;2.60;;
9467;SDS011;4772;52.382;9.752;2023-07-24T04:09:58;3.53;;;2.47;;
9467;SDS011;4772;52.382;9.752;2023-07-24T04:12:24;2.90;;;2.60;;
9467;SDS011;4772;52.382;9.752;2023-07-24T04:14:50;3.03;;;2.70;;
9467;SDS011;4772;52.382;9.752;2023-07-24T04:17:16;2.70;;;2.50;;
9467;SDS011;4772;52.382;9.752;2023-07-24T04:19:42;4.03;;;2.67;;
9467;SDS011;4772;52.382;9.752;2023-07-24T04:22:08;2.80;;;2.60;;
9467;SDS011;4772;52.382;9.752;2023-07-24T04:24:34;2.70;;;2.40;;
9467;SDS011;4772;52.382;9.752;2023-07-24T04:27:00;3.30;;;2.70;;
9467;SDS011;4772;52.382;9.752;2023-07-24T04:29:26;3.87;;;2.80;;
9467;SDS011;4772;52.382;9.752;2023-07-24T04:31:52;3.53;;;2.60;;
9467;SDS011;4772;52.382;9.752;2023-07-24T04:34:18;2.70;;;2.50;;
9467;SDS011;4772;52.382;9.752;2023-07-24T04:36:44;2.90;;;2.63;;
9467;SDS011;4772;52.382;9.752;2023-07-24T04:39:10;3.10;;;2.80;;
9467;SDS011;4772;52.382;9.752;2023-07-24T04:41:36;2.60;;;2.40;;
9467;SDS011;4772;52.382;9.752;2023-07-24T04:44:02;3.37;;;2.80;;
9467;SDS011;4772;52.382;9.752;2023-07-24T04:46:28;4.10;;;2.60;;
9467;SDS011;4772;52.382;9.752;2023-07-24T04:48:54;2.83;;;2.50;;
9467;SDS011;4772;52.382;9.752;2023-07-24T04:51:20;3.37;;;3.00;;
9467;SDS011;4772;52.382;9.752;2023-07-24T04:53:46;2.90;;;2.60;;
9467;SDS011;4772;52.382;9.752;2023-07-24T04:56:12;2.93;;;2.50;;
9467;SDS011;4772;52.382;9.752;2023-07-24T04:58:38;3.03;;;2.53;;
9467;SDS011;4772;52.382;9.752;2023-07-24T05:01:04;2.80;;;2.60;;
9467;SDS011;4772;52.382;9.752;2023-07-24T05:03:31;2.80;;;2.50;;
9467;SDS011;4772;52.382;9.752;2023-07-24T05:05:57;2.50;;;2.30;;
9467;SDS011;4772;52.382;9.752;2023-07-24T05:08:23;2.50;;;2.30;;
9467;SDS011;4772;52.382;9.752;2023-07-24T05:10:55;3.57;;;2.37;;
9467;SDS011;4772;52.382;9.752;2023-07-24T05:13:22;3.60;;;2.60;;
9467;SDS011;4772;52.382;9.752;2023-07-24T05:15:48;2.60;;;2.40;;
9467;SDS011;4772;52.382;9.752;2023-07-24T05:18:14;2.50;;;2.30;;
9467;SDS011;4772;52.382;9.752;2023-07-24T05:20:46;2.97;;;2.30;;
9467;SDS011;4772;52.382;9.752;2023-07-24T05:23:12;2.40;;;2.20;;
9467;SDS011;4772;52.382;9.752;2023-07-24T05:25:38;2.50;;;2.20;;
9467;SDS011;4772;52.382;9.752;2023-07-24T05:28:04;3.37;;;2.30;;
9467;SDS011;4772;52.382;9.752;2023-07-24T05:30:30;2.27;;;2.07;;
9467;SDS011;4772;52.382;9.752;2023-07-24T05:32:56;3.10;;;2.30;;
9467;SDS011;4772;52.382;9.752;2023-07-24T05:35:22;3.37;;;2.40;;
9467;SDS011;4772;52.382;9.752;2023-07-24T05:37:49;3.47;;;2.40;;
9467;SDS011;4772;52.382;9.752;2023-07-24T05:40:15;2.30;;;1.97;;
9467;SDS011;4772;52.382;9.752;2023-07-24T05:42:41;2.47;;;2.27;;
9467;SDS011;4772;52.382;9.752;2023-07-24T05:45:08;3.33;;;2.10;;
9467;SDS011;4772;52.382;9.752;2023-07-24T05:47:34;2.17;;;1.90;;
9467;SDS011;4772;52.382;9.752;2023-07-24T05:50:00;4.53;;;2.20;;
9467;SDS011;4772;52.382;9.752;2023-07-24T05:52:26;3.50;;;2.03;;
9467;SDS011;4772;52.382;9.752;2023-07-24T05:54:52;3.83;;;2.57;;
9467;SDS011;4772;52.382;9.752;2023-07-24T05:57:18;4.67;;;2.30;;
9467;SDS011;4772;52.382;9.752;2023-07-24T05:59:44;2.83;;;2.60;;
9467;SDS011;4772;52.382;9.752;2023-07-24T06:02:10;4.07;;;2.60;;
9467;SDS011;4772;52.382;9.752;2023-07-24T06:04:36;2.33;;;2.13;;
9467;SDS011;4772;52.382;9.752;2023-07-24T06:07:02;3.47;;;2.70;;
9467;SDS011;4772;52.382;9.752;2023-07-24T06:09:28;3.60;;;2.70;;
9467;SDS011;4772;52.382;9.752;2023-07-24T06:11:54;4.07;;;3.10;;
9467;SDS011;4772;52.382;9.752;2023-07-24T06:14:20;2.97;;;2.67;;
9467;SDS011;4772;52.382;9.752;2023-07-24T06:16:46;3.40;;;2.70;;
9467;SDS011;4772;52.382;9.752;2023-07-24T06:19:12;3.53;;;2.60;;
9467;SDS011;4772;52.382;9.752;2023-07-24T06:21:38;4.10;;;2.87;;
9467;SDS011;4772;52.382;9.752;2023-07-24T06:24:04;3.23;;;2.60;;
9467;SDS011;4772;52.382;9.752;2023-07-24T06:26:30;3.30;;;2.63;;
9467;SDS011;4772;52.382;9.752;2023-07-24T06:28:56;5.40;;;2.83;;
9467;SDS011;4772;52.382;9.752;2023-07-24T06:31:22;2.87;;;2.60;;
9467;SDS011;4772;52.382;9.752;2023-07-24T06:33:48;3.67;;;2.83;;
9467;SDS011;4772;52.382;9.752;2023-07-24T06:36:14;3.70;;;2.47;;
9467;SDS011;4772;52.382;9.752;2023-07-24T06:38:40;3.80;;;2.60;;
9467;SDS011;4772;52.382;9.752;2023-07-24T06:41:07;3.07;;;2.73;;
9467;SDS011;4772;52.382;9.752;2023-07-24T06:43:33;3.87;;;2.67;;
9467;SDS011;4772;52.382;9.752;2023-07-24T06:45:59;2.63;;;2.33;;
9467;SDS011;4772;52.382;9.752;2023-07-24T06:48:25;4.77;;;2.87;;
9467;SDS011;4772;52.382;9.752;2023-07-24T06:50:51;4.40;;;2.50;;
9467;SDS011;4772;52.382;9.752;2023-07-24T06:53:17;3.97;;;3.07;;
9467;SDS011;4772;52.382;9.752;2023-07-24T06:55:43;4.70;;;3.27;;
9467;SDS011;4772;52.382;9.752;2023-07-24T06:58:09;3.53;;;2.90;;
9467;SDS011;4772;52.382;9.752;2023-07-24T07:00:35;3.43;;;2.67;;
9467;SDS011;4772;52.382;9.752;2023-07-24T07:03:01;4.03;;;3.00;;
9467;SDS011;4772;52.382;9.752;2023-07-24T07:05:27;3.53;;;3.23;;
9467;SDS011;4772;52.382;9.752;2023-07-24T07:07:53;4.43;;;2.93;;
9467;SDS011;4772;52.382;9.752;2023-07-24T07:10:19;4.40;;;2.73;;
9467;SDS011;4772;52.382;9.752;2023-07-24T07:12:45;3.53;;;2.80;;
9467;SDS011;4772;52.382;9.752;2023-07-24T07:15:11;4.40;;;3.30;;
9467;SDS011;4772;52.382;9.752;2023-07-24T07:17:37;3.60;;;2.93;;
9467;SDS011;4772;52.382;9.752;2023-07-24T07:20:03;3.40;;;3.10;;
9467;SDS011;4772;52.382;9.752;2023-07-24T07:22:30;4.63;;;3.03;;
9467;SDS011;4772;52.382;9.752;2023-07-24T07:24:56;3.27;;;2.97;;
9467;SDS011;4772;52.382;9.752;2023-07-24T07:27:22;5.90;;;3.20;;
9467;SDS011;4772;52.382;9.752;2023-07-24T07:29:48;3.97;;;3.53;;
9467;SDS011;4772;52.382;9.752;2023-07-24T07:32:14;6.10;;;4.23;;
9467;SDS011;4772;52.382;9.752;2023-07-24T07:34:39;6.63;;;4.57;;
9467;SDS011;4772;52.382;9.752;2023-07-24T07:37:05;6.63;;;3.97;;
9467;SDS011;4772;52.382;9.752;2023-07-24T07:39:32;7.00;;;5.20;;
9467;SDS011;4772;52.382;9.752;2023-07-24T07:41:58;5.80;;;4.13;;
9467;SDS011;4772;52.382;9.752;2023-07-24T07:44:24;6.73;;;4.43;;
9467;SDS011;4772;52.382;9.752;2023-07-24T07:46:50;6.27;;;4.40;;
9467;SDS011;4772;52.382;9.752;2023-07-24T07:49:16;7.70;;;4.53;;
9467;SDS011;4772;52.382;9.752;2023-07-24T07:51:41;6.97;;;4.67;;
9467;SDS011;4772;52.382;9.752;2023-07-24T07:54:07;9.20;;;5.40;;
9467;SDS011;4772;52.382;9.752;2023-07-24T07:56:33;9.17;;;4.73;;
9467;SDS011;4772;52.382;9.752;2023-07-24T07:58:59;7.13;;;4.73;;
9467;SDS011;4772;52.382;9.752;2023-07-24T08:01:25;7.07;;;4.53;;
9467;SDS011;4772;52.382;9.752;2023-07-24T08:03:51;7.80;;;4.60;;
9467;SDS011;4772;52.382;9.752;2023-07-24T08:06:17;7.63;;;4.90;;
9467;SDS011;4772;52.382;9.752;2023-07-24T08:08:43;8.13;;;5.13;;
9467;SDS011;4772;52.382;9.752;2023-07-24T08:11:09;8.33;;;5.03;;
9467;SDS011;4772;52.382;9.752;2023-07-24T08:13:35;7.07;;;4.57;;
9467;SDS011;4772;52.382;9.752;2023-07-24T08:16:01;6.77;;;4.60;;
9467;SDS011;4772;52.382;9.752;2023-07-24T08:18:28;7.40;;;4.30;;
9467;SDS011;4772;52.382;9.752;2023-07-24T08:20:54;7.40;;;4.30;;
9467;SDS011;4772;52.382;9.752;2023-07-24T08:23:20;4.93;;;3.60;;
9467;SDS011;4772;52.382;9.752;2023-07-24T08:25:55;8.77;;;3.77;;
9467;SDS011;4772;52.382;9.752;2023-07-24T08:28:21;5.57;;;3.97;;
9467;SDS011;4772;52.382;9.752;2023-07-24T08:30:57;3.93;;;3.30;;
9467;SDS011;4772;52.382;9.752;2023-07-24T08:33:23;6.17;;;3.70;;
9467;SDS011;4772;52.382;9.752;2023-07-24T08:35:59;5.27;;;4.07;;
9467;SDS011;4772;52.382;9.752;2023-07-24T08:38:26;5.43;;;4.50;;
9467;SDS011;4772;52.382;9.752;2023-07-24T08:41:05;4.80;;;3.83;;
9467;SDS011;4772;52.382;9.752;2023-07-24T08:43:31;4.87;;;4.03;;
9467;SDS011;4772;52.382;9.752;2023-07-24T08:45:57;4.00;;;3.60;;
9467;SDS011;4772;52.382;9.752;2023-07-24T08:48:31;4.83;;;3.80;;
9467;SDS011;4772;52.382;9.752;2023-07-24T08:51:11;4.00;;;3.60;;
9467;SDS011;4772;52.382;9.752;2023-07-24T08:53:37;8.67;;;3.63;;
9467;SDS011;4772;52.382;9.752;2023-07-24T08:56:04;6.43;;;3.50;;
9467;SDS011;4772;52.382;9.752;2023-07-24T08:58:31;3.10;;;2.80;;
9467;SDS011;4772;52.382;9.752;2023-07-24T09:00:57;4.10;;;2.88;;
9467;SDS011;4772;52.382;9.752;2023-07-24T09:03:23;3.92;;;3.40;;
9467;SDS011;4772;52.382;9.752;2023-07-24T09:05:49;4.15;;;3.55;;
9467;SDS011;4772;52.382;9.752;2023-07-24T09:08:16;3.60;;;3.30;;
9467;SDS011;4772;52.382;9.752;2023-07-24T09:10:42;3.60;;;3.30;;
9467;SDS011;4772;52.382;9.752;2023-07-24T09:13:08;4.97;;;3.60;;
9467;SDS011;4772;52.382;9.752;2023-07-24T09:15:43;4.05;;;3.60;;
9467;SDS011;4772;52.382;9.752;2023-07-24T09:18:10;5.07;;;3.70;;
9467;SDS011;4772;52.382;9.752;2023-07-24T09:20:39;3.92;;;3.63;;
9467;SDS011;4772;52.382;9.752;2023-07-24T09:23:06;4.53;;;4.13;;
9467;SDS011;4772;52.382;9.752;2023-07-24T09:25:33;4.47;;;3.90;;
9467;SDS011;4772;52.382;9.752;2023-07-24T09:27:59;4.13;;;3.72;;
9467;SDS011;4772;52.382;9.752;2023-07-24T09:30:25;4.05;;;3.65;;
9467;SDS011;4772;52.382;9.752;2023-07-24T09:32:54;5.38;;;4.00;;
9467;SDS011;4772;52.382;9.752;2023-07-24T09:35:21;4.07;;;3.78;;
9467;SDS011;4772;52.382;9.752;2023-07-24T09:38:00;4.45;;;4.10;;
9467;SDS011;4772;52.382;9.752;2023-07-24T09:40:26;4.18;;;3.45;;
9467;SDS011;4772;52.382;9.752;2023-07-24T09:42:52;6.05;;;4.38;;
9467;SDS011;4772;52.382;9.752;2023-07-24T09:45:18;4.28;;;3.88;;
9467;SDS011;4772;52.382;9.752;2023-07-24T09:47:44;4.07;;;3.78;;
9467;SDS011;4772;52.382;9.752;2023-07-24T09:50:13;4.53;;;4.13;;
9467;SDS011;4772;52.382;9.752;2023-07-24T09:52:40;4.22;;;3.83;;
9467;SDS011;4772;52.382;9.752;2023-07-24T09:57:33;4.57;;;4.18;;
9467;SDS011;4772;52.382;9.752;2023-07-24T10:00:00;4.05;;;3.67;;
9467;SDS011;4772;52.382;9.752;2023-07-24T10:02:26;3.80;;;3.50;;
9467;SDS011;4772;52.382;9.752;2023-07-24T10:04:53;3.90;;;3.60;;
9467;SDS011;4772;52.382;9.752;2023-07-24T10:07:19;4.43;;;4.05;;
9467;SDS011;4772;52.382;9.752;2023-07-24T10:09:47;4.55;;;4.10;;
9467;SDS011;4772;52.382;9.752;2023-07-24T10:12:15;5.47;;;4.25;;
9467;SDS011;4772;52.382;9.752;2023-07-24T10:14:42;4.20;;;3.90;;
9467;SDS011;4772;52.382;9.752;2023-07-24T10:17:08;4.25;;;3.85;;
9467;SDS011;4772;52.382;9.752;2023-07-24T10:19:41;4.22;;;3.90;;
9467;SDS011;4772;52.382;9.752;2023-07-24T10:22:16;4.93;;;3.88;;
9467;SDS011;4772;52.382;9.752;2023-07-24T10:24:44;5.45;;;4.03;;
9467;SDS011;4772;52.382;9.752;2023-07-24T10:27:11;4.03;;;3.65;;
9467;SDS011;4772;52.382;9.752;2023-07-24T10:29:37;4.03;;;3.72;;
9467;SDS011;4772;52.382;9.752;2023-07-24T10:32:04;4.13;;;3.72;;
9467;SDS011;4772;52.382;9.752;2023-07-24T10:34:37;4.28;;;3.88;;
9467;SDS011;4772;52.382;9.752;2023-07-24T10:37:03;4.18;;;3.78;;
9467;SDS011;4772;52.382;9.752;2023-07-24T10:39:36;4.38;;;3.97;;
9467;SDS011;4772;52.382;9.752;2023-07-24T10:42:09;5.00;;;4.32;;
9467;SDS011;4772;52.382;9.752;2023-07-24T10:44:35;4.15;;;3.85;;
9467;SDS011;4772;52.382;9.752;2023-07-24T10:47:01;4.40;;;4.00;;
9467;SDS011;4772;52.382;9.752;2023-07-24T10:49:27;4.47;;;4.07;;
9467;SDS011;4772;52.382;9.752;2023-07-24T10:51:59;4.70;;;4.28;;
9467;SDS011;4772;52.382;9.752;2023-07-24T10:54:25;6.95;;;4.10;;
9467;SDS011;4772;52.382;9.752;2023-07-24T10:57:00;4.80;;;4.40;;
9467;SDS011;4772;52.382;9.752;2023-07-24T10:59:36;5.15;;;4.65;;
9467;SDS011;4772;52.382;9.752;2023-07-24T11:02:02;5.32;;;4.80;;
9467;SDS011;4772;52.382;9.752;2023-07-24T11:04:29;5.10;;;4.60;;
9467;SDS011;4772;52.382;9.752;2023-07-24T11:06:55;7.17;;;5.30;;
9467;SDS011;4772;52.382;9.752;2023-07-24T11:09:22;5.80;;;5.30;;
9467;SDS011;4772;52.382;9.752;2023-07-24T11:11:48;5.40;;;4.95;;
9467;SDS011;4772;52.382;9.752;2023-07-24T11:14:17;5.90;;;5.30;;
9467;SDS011;4772;52.382;9.752;2023-07-24T11:16:49;5.50;;;5.10;;
9467;SDS011;4772;52.382;9.752;2023-07-24T11:19:22;7.32;;;4.75;;
9467;SDS011;4772;52.382;9.752;2023-07-24T11:21:48;4.68;;;4.28;;
9467;SDS011;4772;52.382;9.752;2023-07-24T11:24:14;4.80;;;4.40;;
9467;SDS011;4772;52.382;9.752;2023-07-24T11:26:40;6.03;;;4.82;;
9467;SDS011;4772;52.382;9.752;2023-07-24T11:29:10;4.70;;;4.30;;
9467;SDS011;4772;52.382;9.752;2023-07-24T11:31:37;5.07;;;4.68;;
9467;SDS011;4772;52.382;9.752;2023-07-24T11:34:06;5.00;;;4.60;;
9467;SDS011;4772;52.382;9.752;2023-07-24T11:36:33;6.43;;;5.00;;
9467;SDS011;4772;52.382;9.752;2023-07-24T11:38:59;8.02;;;5.25;;
9467;SDS011;4772;52.382;9.752;2023-07-24T11:41:25;5.60;;;5.20;;
9467;SDS011;4772;52.382;9.752;2023-07-24T11:43:52;3.97;;;3.63;;
9467;SDS011;4772;52.382;9.752;2023-07-24T11:48:50;2.40;;;2.20;;
9467;SDS011;4772;52.382;9.752;2023-07-24T11:51:18;3.10;;;2.78;;
9467;SDS011;4772;52.382;9.752;2023-07-24T11:53:44;3.33;;;3.03;;
9467;SDS011;4772;52.382;9.752;2023-07-24T11:56:14;3.50;;;3.20;;
9467;SDS011;4772;52.382;9.752;2023-07-24T11:58:40;3.80;;;3.50;;
9467;SDS011;4772;52.382;9.752;2023-07-24T12:01:06;6.25;;;3.55;;
9467;SDS011;4772;52.382;9.752;2023-07-24T12:03:32;5.88;;;3.80;;
9467;SDS011;4772;52.382;9.752;2023-07-24T12:05:58;5.28;;;4.10;;
9467;SDS011;4772;52.382;9.752;2023-07-24T12:08:31;5.43;;;3.55;;
9467;SDS011;4772;52.382;9.752;2023-07-24T12:10:58;7.10;;;3.90;;
9467;SDS011;4772;52.382;9.752;2023-07-24T12:13:24;4.35;;;3.95;;
9467;SDS011;4772;52.382;9.752;2023-07-24T12:15:50;5.38;;;4.38;;
9467;SDS011;4772;52.382;9.752;2023-07-24T12:18:16;5.05;;;4.40;;
9467;SDS011;4772;52.382;9.752;2023-07-24T12:20:42;6.45;;;4.97;;
9467;SDS011;4772;52.382;9.752;2023-07-24T12:23:08;5.10;;;4.50;;
9467;SDS011;4772;52.382;9.752;2023-07-24T12:25:34;5.68;;;5.13;;
9467;SDS011;4772;52.382;9.752;2023-07-24T12:28:00;5.50;;;4.78;;
9467;SDS011;4772;52.382;9.752;2023-07-24T12:30:26;8.07;;;5.83;;
9467;SDS011;4772;52.382;9.752;2023-07-24T12:32:52;6.22;;;5.68;;
9467;SDS011;4772;52.382;9.752;2023-07-24T12:35:18;6.23;;;5.00;;
9467;SDS011;4772;52.382;9.752;2023-07-24T12:37:45;5.90;;;5.30;;
9467;SDS011;4772;52.382;9.752;2023-07-24T12:40:11;5.90;;;5.40;;
9467;SDS011;4772;52.382;9.752;2023-07-24T12:42:37;6.77;;;5.20;;
9467;SDS011;4772;52.382;9.752;2023-07-24T12:45:03;6.10;;;5.50;;
9467;SDS011;4772;52.382;9.752;2023-07-24T12:47:30;6.87;;;5.50;;
9467;SDS011;4772;52.382;9.752;2023-07-24T12:49:56;8.03;;;5.57;;
9467;SDS011;4772;52.382;9.752;2023-07-24T12:52:24;9.53;;;5.53;;
9467;SDS011;4772;52.382;9.752;2023-07-24T12:54:49;10.20;;;7.77;;
9467;SDS011;4772;52.382;9.752;2023-07-24T12:57:16;8.30;;;5.67;;
9467;SDS011;4772;52.382;9.752;2023-07-24T12:59:42;7.30;;;6.00;;
9467;SDS011;4772;52.382;9.752;2023-07-24T13:02:08;8.07;;;5.73;;
9467;SDS011;4772;52.382;9.752;2023-07-24T13:04:34;8.77;;;5.90;;
9467;SDS011;4772;52.382;9.752;2023-07-24T13:07:00;10.43;;;5.57;;
9467;SDS011;4772;52.382;9.752;2023-07-24T13:09:27;8.23;;;5.65;;
9467;SDS011;4772;52.382;9.752;2023-07-24T13:11:53;7.10;;;5.07;;
9467;SDS011;4772;52.382;9.752;2023-07-24T13:14:19;5.93;;;5.32;;
9467;SDS011;4772;52.382;9.752;2023-07-24T13:16:45;6.18;;;4.80;;
9467;SDS011;4772;52.382;9.752;2023-07-24T13:19:11;5.53;;;4.70;;
9467;SDS011;4772;52.382;9.752;2023-07-24T13:21:38;6.38;;;4.47;;
9467;SDS011;4772;52.382;9.752;2023-07-24T13:24:08;4.65;;;4.25;;
9467;SDS011;4772;52.382;9.752;2023-07-24T13:26:34;4.65;;;4.25;;
9467;SDS011;4772;52.382;9.752;2023-07-24T13:29:00;4.05;;;3.75;;
9467;SDS011;4772;52.382;9.752;2023-07-24T13:31:26;5.35;;;4.40;;
9467;SDS011;4772;52.382;9.752;2023-07-24T13:33:53;4.50;;;4.10;;
9467;SDS011;4772;52.382;9.752;2023-07-24T13:36:19;4.07;;;3.78;;
9467;SDS011;4772;52.382;9.752;2023-07-24T13:38:45;4.22;;;3.83;;
9467;SDS011;4772;52.382;9.752;2023-07-24T13:41:12;4.13;;;3.80;;
9467;SDS011;4772;52.382;9.752;2023-07-24T13:43:39;3.97;;;3.67;;
9467;SDS011;4772;52.382;9.752;2023-07-24T13:46:05;3.42;;;3.15;;
9467;SDS011;4772;52.382;9.752;2023-07-24T13:48:33;3.60;;;3.30;;
9467;SDS011;4772;52.382;9.752;2023-07-24T13:50:59;3.60;;;3.30;;
9467;SDS011;4772;52.382;9.752;2023-07-24T13:53:25;4.00;;;3.60;;
9467;SDS011;4772;52.382;9.752;2023-07-24T13:55:51;4.20;;;3.60;;
9467;SDS011;4772;52.382;9.752;2023-07-24T13:58:17;3.65;;;3.35;;
9467;SDS011;4772;52.382;9.752;2023-07-24T14:00:43;3.50;;;2.90;;
9467;SDS011;4772;52.382;9.752;2023-07-24T14:03:09;3.40;;;2.90;;
9467;SDS011;4772;52.382;9.752;2023-07-24T14:05:35;3.90;;;3.50;;
9467;SDS011;4772;52.382;9.752;2023-07-24T14:08:04;3.87;;;3.57;;
9467;SDS011;4772;52.382;9.752;2023-07-24T14:10:30;6.13;;;3.63;;
9467;SDS011;4772;52.382;9.752;2023-07-24T14:12:56;4.57;;;3.97;;
9467;SDS011;4772;52.382;9.752;2023-07-24T14:15:22;4.47;;;4.10;;
9467;SDS011;4772;52.382;9.752;2023-07-24T14:17:48;5.60;;;5.10;;
9467;SDS011;4772;52.382;9.752;2023-07-24T14:20:14;5.00;;;4.50;;
9467;SDS011;4772;52.382;9.752;2023-07-24T14:22:40;5.37;;;4.87;;
9467;SDS011;4772;52.382;9.752;2023-07-24T14:25:06;4.70;;;4.30;;
9467;SDS011;4772;52.382;9.752;2023-07-24T14:27:32;6.13;;;5.43;;
9467;SDS011;4772;52.382;9.752;2023-07-24T14:29:58;6.10;;;5.50;;
9467;SDS011;4772;52.382;9.752;2023-07-24T14:32:24;5.50;;;5.00;;
9467;SDS011;4772;52.382;9.752;2023-07-24T14:34:51;4.97;;;4.47;;
9467;SDS011;4772;52.382;9.752;2023-07-24T14:37:17;4.87;;;4.40;;
9467;SDS011;4772;52.382;9.752;2023-07-24T14:39:43;4.93;;;4.20;;
9467;SDS011;4772;52.382;9.752;2023-07-24T14:42:10;4.57;;;4.17;;
9467;SDS011;4772;52.382;9.752;2023-07-24T14:44:36;4.80;;;4.40;;
9467;SDS011;4772;52.382;9.752;2023-07-24T14:47:02;5.30;;;4.17;;
9467;SDS011;4772;52.382;9.752;2023-07-24T14:49:28;3.20;;;3.00;;
9467;SDS011;4772;52.382;9.752;2023-07-24T14:51:54;4.47;;;4.00;;
9467;SDS011;4772;52.382;9.752;2023-07-24T14:54:20;7.43;;;3.83;;
9467;SDS011;4772;52.382;9.752;2023-07-24T14:56:46;4.47;;;4.00;;
9467;SDS011;4772;52.382;9.752;2023-07-24T14:59:12;4.07;;;3.77;;
9467;SDS011;4772;52.382;9.752;2023-07-24T15:01:38;3.43;;;3.13;;
9467;SDS011;4772;52.382;9.752;2023-07-24T15:04:04;4.77;;;3.13;;
9467;SDS011;4772;52.382;9.752;2023-07-24T15:06:30;3.57;;;3.27;;
9467;SDS011;4772;52.382;9.752;2023-07-24T15:08:56;4.23;;;3.20;;
9467;SDS011;4772;52.382;9.752;2023-07-24T15:11:23;3.87;;;3.57;;
9467;SDS011;4772;52.382;9.752;2023-07-24T15:13:49;3.30;;;3.07;;
9467;SDS011;4772;52.382;9.752;2023-07-24T15:16:15;4.27;;;3.83;;